Shannon, Ireland

8:35 PM IST on July 28, 2016 (GMT +0100)
Shannon | | Change Station

Elev 66 ft 52.70 °N, 8.92 °W | Updated 5 minutes ago

Mostly Cloudy
Mostly Cloudy
61 °F
Feels Like 61 °F
N
13
Wind Variable Wind from West

Today
High -- | Low -- °F
--% Chance of Precip.
Yesterday
High -- | Low -- °F
Precip. -- in
Pressure 29.86 in
Visibility 6.2 miles
Clouds Few 1200 ft
Scattered Clouds 2200 ft
Mostly Cloudy 3600 ft
Dew Point 57 °F
Humidity 88%
Rainfall 0.00 in
Snow Depth Not available.
5:48 AM 9:34 PM
Waning Crescent, 29% visible
METAR EINN 281930Z 26011KT 9999 FEW012 SCT022 BKN036 16/14 Q1011 TEMPO 4000 BKN008
Pressure 29.86 in
Visibility 6.2 miles
Clouds Few 1200 ft
Scattered Clouds 2200 ft
Mostly Cloudy 3600 ft
Dew Point 57 °F
Humidity 88%
Rainfall 0.00 in
Snow Depth Not available.
5:48 AM 9:34 PM
Waning Crescent, 29% visible
METAR EINN 281930Z 26011KT 9999 FEW012 SCT022 BKN036 16/14 Q1011 TEMPO 4000 BKN008

10-Day Weather Forecast

×

Almanac

Astronomy

Jul. 28, 2016 Rise Set
Actual Time
Civil Twilight
Nautical Twilight
Astronomical Twilight
Moon
Length of Visible Light
Length of Day
Tomorrow will be .
, % of the Moon is Illuminated

Today's Extremes

Country Highs Country Lows

Community

WunderPhotos

Upload Photos

1,928,193 photos uploaded!

WunderBlog® & News

Nearby

Air Quality

  Air Quality AQ Index Pollutant
Not available.

Snow Depth

Station Depth Elevation

Earthquake Activity

City Distance Mag. Time & Date
Minimum magnitude displayed is 2.5.

Coastal Water Temperatures

Place Temperature

Stations

Nearby Weather Stations

Station Location Temp. Windchill Dew Point Humidity Wind Precip. Elev Updated Type